Time,TemperatureF,DewpointF,PressureIn,WindDirection,WindDirectionDegrees,WindSpeedMPH,WindSpeedGustMPH,Humidity,HourlyPrecipIn,Conditions,Clouds,dailyrainin,SoftwareType,DateUTC
2013-03-22 04:25:00,18.3,11.4,27.89,WSW,256,12.0,12.0,74,0.00,,,1.72,WUHU216DAVISWMX,2013-03-22 08:25:00,
2013-03-22 04:26:00,18.3,11.4,27.89,WSW,256,12.0,12.0,74,0.00,,,1.72,WUHU216DAVISWMX,2013-03-22 08:26:00,
2013-03-22 04:31:00,19.5,12.6,27.89,WSW,241,0.0,13.0,74,0.00,,,1.72,WUHU216DAVISWMX,2013-03-22 08:31:00,
2013-03-22 04:36:00,19.6,13.0,27.89,WSW,244,9.0,13.0,75,0.00,,,1.72,WUHU216DAVISWMX,2013-03-22 08:36:00,
2013-03-22 04:41:00,19.5,12.9,27.89,West,268,0.0,11.0,75,0.00,,,1.72,WUHU216DAVISWMX,2013-03-22 08:41:00,
2013-03-22 04:46:00,19.5,12.9,27.89,WSW,247,0.0,12.0,75,0.00,,,1.72,WUHU216DAVISWMX,2013-03-22 08:46:00,
2013-03-22 04:51:00,19.6,13.3,27.89,WSW,245,0.0,12.0,76,0.00,,,1.72,WUHU216DAVISWMX,2013-03-22 08:51:00,
2013-03-22 04:56:00,19.6,13.6,27.89,WSW,238,0.0,9.0,77,0.00,,,1.72,WUHU216DAVISWMX,2013-03-22 08:56:00,
2013-03-22 05:01:00,19.4,13.4,27.89,WSW,247,0.0,21.0,77,0.00,,,1.72,WUHU216DAVISWMX,2013-03-22 09:01:00,
2013-03-22 05:06:00,19.3,13.3,27.90,West,276,0.0,21.0,77,0.00,,,1.72,WUHU216DAVISWMX,2013-03-22 09:06:00,
2013-03-22 05:11:00,19.4,13.4,27.90,WSW,253,0.0,15.0,77,0.00,,,1.72,WUHU216DAVISWMX,2013-03-22 09:11:00,
2013-03-22 05:16:00,19.7,13.1,27.89,WSW,248,0.0,16.0,75,0.00,,,1.72,WUHU216DAVISWMX,2013-03-22 09:16:00,
2013-03-22 05:21:00,19.6,13.3,27.89,WSW,244,0.0,16.0,76,0.00,,,1.72,WUHU216DAVISWMX,2013-03-22 09:21:00,
2013-03-22 05:26:00,19.6,13.3,27.89,WSW,243,9.0,16.0,76,0.00,,,1.72,WUHU216DAVISWMX,2013-03-22 09:26:00,
2013-03-22 05:31:00,19.6,13.3,27.90,West,266,0.0,16.0,76,0.00,,,1.72,WUHU216DAVISWMX,2013-03-22 09:31:00,
2013-03-22 05:36:00,19.6,13.3,27.90,West,273,0.0,16.0,76,0.00,,,1.72,WUHU216DAVISWMX,2013-03-22 09:36:00,
2013-03-22 05:41:00,19.6,13.3,27.90,WSW,257,5.0,14.0,76,0.00,,,1.72,WUHU216DAVISWMX,2013-03-22 09:41:00,
2013-03-22 05:46:00,19.7,13.1,27.90,WSW,252,0.0,21.0,75,0.00,,,1.72,WUHU216DAVISWMX,2013-03-22 09:46:00,
2013-03-22 05:51:00,19.7,13.1,27.90,West,265,15.0,21.0,75,0.00,,,1.72,WUHU216DAVISWMX,2013-03-22 09:51:00,
2013-03-22 05:56:00,19.7,12.8,27.90,WSW,249,0.0,20.0,74,0.00,,,1.72,WUHU216DAVISWMX,2013-03-22 09:56:00,
2013-03-22 06:01:00,19.8,12.9,27.90,WSW,253,0.0,20.0,74,0.00,,,1.72,WUHU216DAVISWMX,2013-03-22 10:01:00,
2013-03-22 06:07:00,19.7,12.8,27.91,WSW,242,0.0,20.0,74,0.00,,,1.72,WUHU216DAVISWMX,2013-03-22 10:07:00,
2013-03-22 06:12:00,19.7,12.5,27.91,West,263,0.0,20.0,73,0.00,,,1.72,WUHU216DAVISWMX,2013-03-22 10:12:00,
2013-03-22 06:17:00,19.7,12.5,27.91,SW,229,0.0,17.0,73,0.00,,,1.72,WUHU216DAVISWMX,2013-03-22 10:17:00,
2013-03-22 06:22:00,19.6,12.4,27.91,West,262,0.0,17.0,73,0.00,,,1.72,WUHU216DAVISWMX,2013-03-22 10:22:00,
2013-03-22 06:27:00,19.6,12.4,27.91,West,267,0.0,17.0,73,0.00,,,1.72,WUHU216DAVISWMX,2013-03-22 10:27:00,
2013-03-22 06:32:00,19.6,12.4,27.91,WSW,249,0.0,16.0,73,0.00,,,1.72,WUHU216DAVISWMX,2013-03-22 10:32:00,
2013-03-22 06:37:00,19.6,12.4,27.91,West,267,0.0,10.0,73,0.00,,,1.72,WUHU216DAVISWMX,2013-03-22 10:37:00,
2013-03-22 06:42:00,19.6,12.4,27.91,WSW,245,0.0,9.0,73,0.00,,,1.72,WUHU216DAVISWMX,2013-03-22 10:42:00,
2013-03-22 06:47:00,19.6,12.4,27.92,WSW,245,0.0,9.0,73,0.00,,,1.72,WUHU216DAVISWMX,2013-03-22 10:47:00,
2013-03-22 06:52:00,19.6,12.4,27.92,WSW,245,0.0,0.0,73,0.00,,,1.72,WUHU216DAVISWMX,2013-03-22 10:52:00,
2013-03-22 06:57:00,19.6,12.4,27.92,West,269,0.0,14.0,73,0.00,,,1.72,WUHU216DAVISWMX,2013-03-22 10:57:00,
2013-03-22 07:02:00,19.6,12.4,27.92,WSW,247,0.0,24.0,73,0.00,,,1.72,WUHU216DAVISWMX,2013-03-22 11:02:00,
2013-03-22 07:07:00,19.6,12.4,27.92,WSW,247,0.0,24.0,73,0.00,,,1.72,WUHU216DAVISWMX,2013-03-22 11:07:00,
2013-03-22 07:12:00,19.6,12.4,27.92,WSW,247,0.0,0.0,73,0.00,,,1.72,WUHU216DAVISWMX,2013-03-22 11:12:00,
2013-03-22 07:17:00,19.6,12.4,27.92,WSW,247,0.0,0.0,73,0.00,,,1.72,WUHU216DAVISWMX,2013-03-22 11:17:00,
2013-03-22 07:22:00,19.6,12.4,27.92,WSW,247,0.0,0.0,73,0.00,,,1.72,WUHU216DAVISWMX,2013-03-22 11:22:00,
2013-03-22 07:27:00,19.6,12.4,27.93,WSW,247,0.0,0.0,73,0.00,,,1.72,WUHU216DAVISWMX,2013-03-22 11:27:00,
2013-03-22 07:32:00,19.6,12.4,27.92,WSW,247,0.0,0.0,73,0.00,,,1.72,WUHU216DAVISWMX,2013-03-22 11:32:00,
2013-03-22 08:19:00,17.6,9.8,27.95,WSW,247,9.0,9.0,71,0.00,,,1.72,WUHU216DAVISWMX,2013-03-22 12:19:00,
2013-03-22 08:24:00,19.5,11.7,27.94,SW,227,0.0,9.0,71,0.00,,,1.72,WUHU216DAVISWMX,2013-03-22 12:24:00,
2013-03-22 08:29:00,19.4,11.6,27.94,SW,227,0.0,9.0,71,0.00,,,1.72,WUHU216DAVISWMX,2013-03-22 12:29:00,
2013-03-22 08:34:00,19.5,11.7,27.95,SW,227,0.0,0.0,71,0.00,,,1.72,WUHU216DAVISWMX,2013-03-22 12:34:00,
2013-03-22 08:39:00,19.4,11.6,27.95,SW,227,0.0,0.0,71,0.00,,,1.72,WUHU216DAVISWMX,2013-03-22 12:39:00,
2013-03-22 08:44:00,19.5,11.7,27.95,SW,227,0.0,0.0,71,0.00,,,1.72,WUHU216DAVISWMX,2013-03-22 12:44:00,
2013-03-22 08:48:00,19.5,11.6,27.95,SW,227,0.0,0.0,71,0.00,,,1.72,WUHU216DAVISWMX,2013-03-22 12:48:00,
2013-03-22 08:49:00,19.5,11.7,27.95,SW,227,0.0,0.0,71,0.00,,,1.72,WUHU216DAVISWMX,2013-03-22 12:49:00,
2013-03-22 08:54:00,19.5,11.6,27.95,SW,227,0.0,0.0,71,0.00,,,1.72,WUHU216DAVISWMX,2013-03-22 12:54:00,
2013-03-22 08:59:00,19.5,11.6,27.95,SW,227,0.0,0.0,71,0.00,,,1.72,WUHU216DAVISWMX,2013-03-22 12:59:00,
2013-03-22 09:13:00,19.1,12.8,27.96,WSW,240,7.0,7.0,76,0.00,,,1.72,WUHU216DAVISWMX,2013-03-22 13:13:00,
2013-03-22 09:18:00,19.1,12.8,27.96,SW,230,0.0,7.0,76,0.00,,,1.72,WUHU216DAVISWMX,2013-03-22 13:18:00,
2013-03-22 09:23:00,19.2,12.6,27.96,West,261,0.0,8.0,75,0.00,,,1.72,WUHU216DAVISWMX,2013-03-22 13:23:00,
2013-03-22 09:28:00,19.3,13.3,27.96,WSW,245,8.0,8.0,77,0.00,,,1.72,WUHU216DAVISWMX,2013-03-22 13:28:00,
2013-03-22 09:32:00,19.4,13.4,27.96,WSW,254,0.0,8.0,77,0.00,,,1.72,WUHU216DAVISWMX,2013-03-22 13:32:00,
2013-03-22 09:37:00,19.4,13.1,27.96,WSW,246,8.0,8.0,76,0.00,,,1.72,WUHU216DAVISWMX,2013-03-22 13:37:00,
2013-03-22 09:43:00,19.3,13.0,27.96,WSW,247,0.0,12.0,76,0.00,,,1.72,WUHU216DAVISWMX,2013-03-22 13:43:00,
2013-03-22 09:47:00,12.3,6.2,27.96,North,358,0.0,40.0,76,0.00,,,1.72,WUHU216DAVISWMX,2013-03-22 13:47:00,
2013-03-22 09:53:00,12.3,6.2,27.96,North,358,0.0,40.0,76,0.00,,,1.72,WUHU216DAVISWMX,2013-03-22 13:53:00,
2013-03-22 09:58:00,19.3,13.0,27.96,WSW,247,0.0,9.0,76,0.00,,,1.72,WUHU216DAVISWMX,2013-03-22 13:58:00,
2013-03-22 10:03:00,19.3,13.0,27.97,SW,214,0.0,9.0,76,0.00,,,1.72,WUHU216DAVISWMX,2013-03-22 14:03:00,
2013-03-22 10:08:00,19.6,13.3,27.97,WSW,243,0.0,13.0,76,0.00,,,1.72,WUHU216DAVISWMX,2013-03-22 14:08:00,
2013-03-22 10:13:00,19.6,13.3,27.97,West,261,0.0,13.0,76,0.00,,,1.72,WUHU216DAVISWMX,2013-03-22 14:13:00,
2013-03-22 10:18:00,19.6,13.3,27.97,West,261,0.0,8.0,76,0.00,,,1.72,WUHU216DAVISWMX,2013-03-22 14:18:00,
2013-03-22 10:23:00,19.5,13.2,27.97,West,269,5.0,5.0,76,0.00,,,1.72,WUHU216DAVISWMX,2013-03-22 14:23:00,
2013-03-22 10:28:00,19.5,13.2,27.97,WSW,248,0.0,8.0,76,0.00,,,1.72,WUHU216DAVISWMX,2013-03-22 14:28:00,
2013-03-22 10:33:00,19.5,13.2,27.97,WSW,248,0.0,8.0,76,0.00,,,1.72,WUHU216DAVISWMX,2013-03-22 14:33:00,
2013-03-22 10:38:00,19.6,13.3,27.97,WSW,250,5.0,9.0,76,0.00,,,1.72,WUHU216DAVISWMX,2013-03-22 14:38:00,
2013-03-22 10:43:00,19.6,13.6,27.97,WSW,253,0.0,9.0,77,0.00,,,1.72,WUHU216DAVISWMX,2013-03-22 14:43:00,
2013-03-22 10:48:00,19.6,13.6,27.97,WSW,247,0.0,7.0,77,0.00,,,1.72,WUHU216DAVISWMX,2013-03-22 14:48:00,
2013-03-22 10:53:00,19.7,13.7,27.97,WSW,247,0.0,7.0,77,0.00,,,1.72,WUHU216DAVISWMX,2013-03-22 14:53:00,
2013-03-22 10:58:00,19.6,13.6,27.97,WSW,247,0.0,0.0,77,0.00,,,1.72,WUHU216DAVISWMX,2013-03-22 14:58:00,
2013-03-22 11:03:00,19.7,13.7,27.97,WSW,247,0.0,0.0,77,0.00,,,1.72,WUHU216DAVISWMX,2013-03-22 15:03:00,
2013-03-22 11:08:00,20.4,14.4,27.97,WSW,257,0.0,9.0,77,0.00,,,1.72,WUHU216DAVISWMX,2013-03-22 15:08:00,
2013-03-22 11:13:00,20.5,14.5,27.97,WSW,257,0.0,9.0,77,0.00,,,1.72,WUHU216DAVISWMX,2013-03-22 15:13:00,
2013-03-22 11:18:00,20.5,14.5,27.97,WSW,257,0.0,0.0,77,0.00,,,1.72,WUHU216DAVISWMX,2013-03-22 15:18:00,
2013-03-22 11:23:00,20.5,14.5,27.97,WSW,257,0.0,0.0,77,0.00,,,1.72,WUHU216DAVISWMX,2013-03-22 15:23:00,
2013-03-22 11:28:00,20.5,14.5,27.97,WSW,257,0.0,0.0,77,0.00,,,1.72,WUHU216DAVISWMX,2013-03-22 15:28:00,
2013-03-22 11:31:00,20.5,14.5,27.97,WSW,257,0.0,0.0,77,0.00,,,1.72,WUHU216DAVISWMX,2013-03-22 15:31:00,
2013-03-22 11:33:00,20.5,14.5,27.97,WSW,257,0.0,0.0,77,0.00,,,1.72,WUHU216DAVISWMX,2013-03-22 15:33:00,
2013-03-22 11:38:00,20.5,14.5,27.97,WSW,257,0.0,0.0,77,0.00,,,1.72,WUHU216DAVISWMX,2013-03-22 15:38:00,